createdAt,value
2022-07-29T00:02:16.703Z,6.47
2022-07-29T00:04:43.674Z,6.00
2022-07-29T00:07:10.649Z,5.88
2022-07-29T00:09:50.619Z,5.90
2022-07-29T00:12:25.715Z,6.00
2022-07-29T00:14:56.613Z,5.15
2022-07-29T00:17:24.494Z,5.90
2022-07-29T00:19:51.412Z,5.85
2022-07-29T00:22:18.185Z,5.40
2022-07-29T00:24:44.891Z,6.20
2022-07-29T00:27:11.594Z,5.20
2022-07-29T00:29:38.481Z,5.40
2022-07-29T00:32:05.480Z,5.93
2022-07-29T00:34:51.261Z,5.80
2022-07-29T00:37:18.041Z,5.40
2022-07-29T00:39:44.974Z,6.10
2022-07-29T00:42:11.901Z,6.47
2022-07-29T00:44:42.418Z,6.60
2022-07-29T00:47:11.060Z,6.00
2022-07-29T00:49:40.023Z,5.63
2022-07-29T00:52:08.285Z,6.37
2022-07-29T00:54:37.162Z,6.20
2022-07-29T00:57:08.361Z,6.50
2022-07-29T00:59:35.612Z,5.53
2022-07-29T01:02:03.995Z,6.60
2022-07-29T01:04:32.135Z,6.80
2022-07-29T01:06:59.739Z,6.50
2022-07-29T01:09:45.577Z,6.40
2022-07-29T01:12:19.984Z,6.57
2022-07-29T01:14:48.622Z,7.37
2022-07-29T01:17:24.126Z,6.95
2022-07-29T01:19:58.303Z,6.10
2022-07-29T01:22:57.201Z,6.72
2022-07-29T01:26:01.581Z,6.60
2022-07-29T01:28:56.074Z,6.30
2022-07-29T01:31:55.230Z,6.40
2022-07-29T01:34:36.172Z,6.30
2022-07-29T01:37:07.454Z,6.47
2022-07-29T01:39:37.199Z,6.50
2022-07-29T01:42:06.771Z,6.00
2022-07-29T01:44:40.661Z,6.38
2022-07-29T01:47:16.763Z,5.88
2022-07-29T01:49:50.977Z,6.32
2022-07-29T01:52:26.015Z,6.00
2022-07-29T01:55:10.490Z,6.18
2022-07-29T01:57:38.931Z,6.40
2022-07-29T02:00:06.925Z,6.80
2022-07-29T02:02:36.363Z,6.07
2022-07-29T02:05:04.140Z,6.07
2022-07-29T02:07:34.319Z,6.30
2022-07-29T02:10:03.896Z,6.10
2022-07-29T02:12:32.739Z,6.28
2022-07-29T02:15:02.077Z,6.18
2022-07-29T02:17:43.081Z,6.55
2022-07-29T02:20:10.944Z,5.93
2022-07-29T02:22:40.304Z,6.10
2022-07-29T02:25:13.748Z,6.20
2022-07-29T02:27:42.215Z,5.57
2022-07-29T02:30:10.993Z,5.67
2022-07-29T02:32:40.596Z,5.63
2022-07-29T02:35:09.522Z,5.60
2022-07-29T02:37:38.120Z,5.60
2022-07-29T02:40:06.900Z,5.10
2022-07-29T02:42:36.899Z,5.28
2022-07-29T02:45:04.451Z,5.18
2022-07-29T02:47:41.511Z,4.57
2022-07-29T02:50:25.280Z,4.80
2022-07-29T02:52:58.305Z,4.80
2022-07-29T02:55:36.857Z,4.57
2022-07-29T02:58:12.165Z,4.90
2022-07-29T03:00:40.144Z,5.10
2022-07-29T03:03:11.941Z,5.47
2022-07-29T03:05:38.705Z,4.70
2022-07-29T03:08:07.479Z,5.35
2022-07-29T03:10:35.296Z,5.00
2022-07-29T03:13:02.884Z,4.70
2022-07-29T03:15:30.224Z,4.88
2022-07-29T03:17:57.473Z,5.38
2022-07-29T03:20:24.642Z,5.25
2022-07-29T03:22:51.433Z,5.00
2022-07-29T03:25:19.868Z,4.83
2022-07-29T03:27:47.707Z,5.50
2022-07-29T03:30:21.644Z,5.60
2022-07-29T03:32:51.898Z,5.27
2022-07-29T03:35:21.961Z,5.50
2022-07-29T03:37:49.142Z,5.70
2022-07-29T03:40:20.861Z,5.20
2022-07-29T03:42:49.500Z,6.07
2022-07-29T03:45:19.752Z,5.17
2022-07-29T03:48:00.748Z,5.22
2022-07-29T03:50:30.055Z,5.35
2022-07-29T03:52:56.984Z,4.80
2022-07-29T03:55:24.265Z,5.68
2022-07-29T03:57:51.497Z,5.60
2022-07-29T04:00:18.740Z,5.70
2022-07-29T04:02:49.982Z,6.70
2022-07-29T04:05:18.324Z,5.03
2022-07-29T04:07:46.739Z,5.10
2022-07-29T04:10:13.878Z,5.40
2022-07-29T04:12:41.299Z,6.00
2022-07-29T04:15:08.699Z,5.43
2022-07-29T04:17:35.597Z,5.70
2022-07-29T04:20:02.334Z,5.43
2022-07-29T04:22:29.026Z,5.32
2022-07-29T04:24:59.089Z,5.82
2022-07-29T04:27:30.034Z,5.75
2022-07-29T04:29:57.596Z,6.35
2022-07-29T04:32:25.469Z,5.50
2022-07-29T04:34:52.377Z,6.22
2022-07-29T04:37:19.307Z,5.93
2022-07-29T04:39:46.090Z,5.80
2022-07-29T04:42:13.315Z,5.55
2022-07-29T04:44:43.048Z,5.50
2022-07-29T04:47:10.282Z,5.35
2022-07-29T04:49:39.839Z,5.80
2022-07-29T04:52:07.573Z,6.17
2022-07-29T04:54:34.428Z,6.40
2022-07-29T04:57:01.228Z,5.80
2022-07-29T04:59:28.077Z,5.50
2022-07-29T05:01:54.932Z,5.30
2022-07-29T05:04:21.790Z,5.90
2022-07-29T05:06:48.864Z,6.30
2022-07-29T05:09:15.723Z,5.40
2022-07-29T05:11:42.519Z,5.40
2022-07-29T05:14:09.305Z,4.70
2022-07-29T05:16:36.249Z,5.20
2022-07-29T05:19:03.047Z,5.20
2022-07-29T05:21:29.881Z,4.53
2022-07-29T05:23:56.591Z,4.80
2022-07-29T05:26:23.387Z,4.40
2022-07-29T05:28:50.211Z,4.20
2022-07-29T05:31:17.419Z,4.80
2022-07-29T05:33:44.246Z,4.38
2022-07-29T05:36:10.980Z,4.80
2022-07-29T05:38:37.881Z,5.83
2022-07-29T05:41:06.013Z,5.93
2022-07-29T05:43:33.219Z,5.23
2022-07-29T05:46:00.635Z,5.00
2022-07-29T05:48:28.077Z,5.40
2022-07-29T05:50:55.664Z,4.87
2022-07-29T05:53:22.983Z,4.95
2022-07-29T05:55:50.178Z,5.10
2022-07-29T05:58:17.325Z,4.90
2022-07-29T06:00:44.331Z,4.93
2022-07-29T06:03:11.173Z,4.70
2022-07-29T06:05:38.346Z,4.53
2022-07-29T06:08:08.680Z,4.70
2022-07-29T06:10:38.833Z,4.30
2022-07-29T06:13:05.817Z,4.32
2022-07-29T06:15:32.798Z,4.75
2022-07-29T06:18:01.731Z,4.30
2022-07-29T06:20:33.169Z,4.45
2022-07-29T06:23:00.987Z,4.50
2022-07-29T06:25:31.752Z,4.10
2022-07-29T06:27:58.987Z,3.80
2022-07-29T06:30:25.939Z,4.30
2022-07-29T06:32:52.725Z,4.03
2022-07-29T06:35:41.847Z,4.00
2022-07-29T06:38:31.028Z,3.95
2022-07-29T06:41:06.770Z,4.10
2022-07-29T06:43:50.481Z,3.80
2022-07-29T06:46:20.384Z,3.78
2022-07-29T06:48:48.775Z,4.22
2022-07-29T06:51:16.215Z,3.70
2022-07-29T06:53:59.075Z,3.80
2022-07-29T06:56:29.872Z,4.00
2022-07-29T06:58:56.681Z,4.40
2022-07-29T07:01:23.509Z,3.90
2022-07-29T07:03:50.508Z,4.05
2022-07-29T07:06:17.676Z,4.00
2022-07-29T07:08:44.664Z,3.47
2022-07-29T07:11:11.417Z,3.72
2022-07-29T07:13:38.637Z,3.70
2022-07-29T07:16:05.650Z,3.50
2022-07-29T07:18:32.870Z,3.80
2022-07-29T07:20:59.740Z,3.80
2022-07-29T07:23:26.549Z,3.20
2022-07-29T07:25:53.514Z,3.65
2022-07-29T07:28:25.036Z,3.60
2022-07-29T07:30:52.698Z,3.50
2022-07-29T07:33:20.217Z,3.70
2022-07-29T07:35:47.266Z,3.50
2022-07-29T07:38:14.142Z,4.00
2022-07-29T07:40:41.595Z,3.90
2022-07-29T07:43:08.393Z,3.88
2022-07-29T07:45:35.332Z,4.10
2022-07-29T07:48:02.217Z,3.70
2022-07-29T07:50:29.286Z,3.60
2022-07-29T07:53:00.435Z,3.80
2022-07-29T07:55:27.458Z,4.20
2022-07-29T07:57:55.298Z,5.90
2022-07-29T08:00:23.803Z,4.00
2022-07-29T08:02:51.228Z,4.10
2022-07-29T08:05:18.897Z,4.10
2022-07-29T08:07:47.557Z,3.70
2022-07-29T08:10:37.688Z,4.10
2022-07-29T08:13:08.980Z,3.78
2022-07-29T08:15:36.222Z,3.70
2022-07-29T08:18:08.371Z,3.80
2022-07-29T08:20:36.717Z,4.25
2022-07-29T08:23:05.320Z,3.80
2022-07-29T08:25:32.297Z,3.85
2022-07-29T08:28:01.438Z,3.67
2022-07-29T08:30:28.560Z,3.80
2022-07-29T08:32:55.992Z,4.15
2022-07-29T08:35:24.602Z,3.95
2022-07-29T08:37:52.228Z,3.80
2022-07-29T08:40:20.181Z,4.32
2022-07-29T08:42:57.729Z,4.15
2022-07-29T08:45:25.444Z,4.10
2022-07-29T08:47:53.338Z,4.13
2022-07-29T08:50:20.113Z,4.15
2022-07-29T08:52:47.844Z,4.27
2022-07-29T08:55:16.709Z,3.83
2022-07-29T08:57:50.902Z,4.20
2022-07-29T09:00:24.083Z,4.20
2022-07-29T09:02:57.321Z,4.30
2022-07-29T09:05:25.832Z,5.00
2022-07-29T09:07:53.075Z,5.18
2022-07-29T09:10:20.063Z,4.80
2022-07-29T09:12:47.185Z,4.53
2022-07-29T09:15:14.002Z,4.72
2022-07-29T09:17:45.633Z,4.45
2022-07-29T09:20:14.703Z,4.45
2022-07-29T09:22:42.186Z,4.60
2022-07-29T09:25:12.638Z,4.50
2022-07-29T09:27:39.965Z,4.85
2022-07-29T09:30:11.765Z,4.60
2022-07-29T09:32:59.319Z,4.82
2022-07-29T09:35:27.138Z,4.97
2022-07-29T09:37:54.963Z,4.90
2022-07-29T09:40:28.059Z,4.60
2022-07-29T09:42:58.102Z,5.07
2022-07-29T09:45:35.157Z,4.70
2022-07-29T09:48:20.505Z,5.00
2022-07-29T09:50:50.616Z,4.80
2022-07-29T09:53:38.536Z,4.93
2022-07-29T09:56:06.053Z,5.07
2022-07-29T09:58:36.426Z,5.20
2022-07-29T10:01:04.272Z,4.80
2022-07-29T10:03:31.285Z,5.90
2022-07-29T10:06:10.179Z,5.47
2022-07-29T10:08:37.372Z,5.38
2022-07-29T10:11:48.806Z,5.28
2022-07-29T10:14:17.752Z,4.90
2022-07-29T10:16:45.047Z,4.95
2022-07-29T10:19:11.889Z,5.40
2022-07-29T10:21:40.789Z,5.60
2022-07-29T10:24:14.690Z,5.43
2022-07-29T10:26:42.892Z,5.15
2022-07-29T10:29:09.648Z,5.03
2022-07-29T10:31:49.158Z,5.70
2022-07-29T10:34:28.908Z,5.28
2022-07-29T10:37:29.662Z,5.50
2022-07-29T10:40:37.348Z,5.53
2022-07-29T10:43:18.996Z,6.07
2022-07-29T10:45:50.297Z,5.90
2022-07-29T10:48:19.749Z,5.70
2022-07-29T10:51:01.514Z,6.50
2022-07-29T10:53:53.442Z,5.40
2022-07-29T10:56:37.209Z,5.80
2022-07-29T10:59:25.109Z,5.60
2022-07-29T11:01:56.704Z,6.37
2022-07-29T11:05:02.839Z,5.85
2022-07-29T11:07:45.796Z,6.20
2022-07-29T11:10:13.949Z,5.93
2022-07-29T11:12:44.137Z,6.20
2022-07-29T11:15:19.695Z,6.65
2022-07-29T11:17:55.345Z,6.55
2022-07-29T11:20:38.354Z,6.65
2022-07-29T11:23:33.469Z,8.48
2022-07-29T11:26:26.689Z,8.80
2022-07-29T11:28:57.126Z,9.07
2022-07-29T11:31:35.617Z,8.75
2022-07-29T11:34:28.140Z,8.75
2022-07-29T11:37:14.898Z,8.60
2022-07-29T11:39:47.036Z,8.30
2022-07-29T11:42:32.260Z,9.27
2022-07-29T11:45:40.384Z,7.88
2022-07-29T11:47:56.178Z,7.20
2022-07-29T11:50:36.067Z,6.75
2022-07-29T11:53:12.061Z,5.20
2022-07-29T11:55:50.955Z,4.70
2022-07-29T11:58:29.446Z,3.58
2022-07-29T12:00:57.709Z,4.15
2022-07-29T12:03:34.960Z,4.40
2022-07-29T12:06:12.327Z,4.38
2022-07-29T12:08:44.375Z,4.65
2022-07-29T12:11:20.810Z,4.37
2022-07-29T12:13:49.280Z,3.20
2022-07-29T12:16:25.437Z,3.67
2022-07-29T12:19:04.086Z,3.63
2022-07-29T12:21:50.989Z,3.50
2022-07-29T12:24:26.865Z,3.55
2022-07-29T12:27:01.088Z,3.40
2022-07-29T12:29:35.100Z,3.90
2022-07-29T12:32:04.770Z,3.90
2022-07-29T12:34:32.646Z,3.80
2022-07-29T12:36:59.646Z,3.70
2022-07-29T12:39:28.957Z,4.10
2022-07-29T12:42:03.821Z,4.20
2022-07-29T12:44:51.406Z,3.90
2022-07-29T12:47:20.141Z,3.88
2022-07-29T12:49:47.891Z,3.80
2022-07-29T12:52:30.034Z,3.90
2022-07-29T12:54:57.326Z,3.83
2022-07-29T12:57:24.963Z,4.13
2022-07-29T13:00:11.187Z,4.15
2022-07-29T13:02:39.062Z,4.43
2022-07-29T13:05:07.277Z,4.47
2022-07-29T13:07:54.039Z,4.47
2022-07-29T13:10:24.155Z,4.82
2022-07-29T13:13:10.594Z,4.50
2022-07-29T13:15:39.197Z,5.25
2022-07-29T13:18:26.068Z,5.10
2022-07-29T13:20:52.844Z,4.68
2022-07-29T13:23:19.628Z,4.47
2022-07-29T13:25:46.513Z,5.15
2022-07-29T13:28:13.308Z,4.95
2022-07-29T13:30:44.479Z,5.07
2022-07-29T13:33:11.873Z,5.10
2022-07-29T13:35:39.917Z,5.47
2022-07-29T13:38:07.150Z,5.72
2022-07-29T13:40:36.315Z,6.05
2022-07-29T13:43:03.270Z,5.80
2022-07-29T13:45:30.869Z,5.82
2022-07-29T13:47:57.691Z,5.93
2022-07-29T13:50:24.490Z,6.25
2022-07-29T13:52:52.065Z,6.65
2022-07-29T13:55:19.288Z,7.00
2022-07-29T13:57:46.538Z,6.82
2022-07-29T14:00:14.504Z,7.07
2022-07-29T14:02:41.407Z,6.80
2022-07-29T14:05:10.689Z,6.80
2022-07-29T14:07:40.140Z,6.13
2022-07-29T14:10:08.106Z,6.40
2022-07-29T14:12:34.922Z,6.30
2022-07-29T14:15:01.902Z,6.97
2022-07-29T14:17:28.822Z,6.60
2022-07-29T14:19:55.653Z,6.85
2022-07-29T14:22:23.134Z,6.60
2022-07-29T14:24:52.530Z,7.00
2022-07-29T14:27:19.402Z,6.70
2022-07-29T14:29:46.190Z,7.50
2022-07-29T14:32:13.591Z,8.43
2022-07-29T14:34:40.655Z,7.40
2022-07-29T14:37:08.181Z,8.10
2022-07-29T14:39:42.525Z,8.70
2022-07-29T14:42:09.580Z,7.85
2022-07-29T14:44:38.478Z,8.40
2022-07-29T14:47:07.638Z,9.50
2022-07-29T14:49:35.393Z,9.25
2022-07-29T14:52:04.433Z,9.20
2022-07-29T14:54:31.271Z,9.38
2022-07-29T14:56:58.621Z,8.63
2022-07-29T14:59:26.423Z,8.23
2022-07-29T15:01:53.601Z,8.40
2022-07-29T15:04:20.651Z,8.80
2022-07-29T15:06:47.525Z,8.13
2022-07-29T15:09:14.557Z,9.13
2022-07-29T15:11:41.530Z,8.23
2022-07-29T15:14:08.444Z,8.38
2022-07-29T15:16:37.858Z,7.78
2022-07-29T15:19:05.544Z,8.38
2022-07-29T15:21:32.757Z,7.72
2022-07-29T15:24:02.743Z,8.95
2022-07-29T15:26:29.588Z,8.00
2022-07-29T15:28:59.474Z,8.00
2022-07-29T15:31:30.746Z,8.20
2022-07-29T15:34:00.263Z,7.78
2022-07-29T15:36:50.897Z,7.10
2022-07-29T15:39:15.975Z,7.38
2022-07-29T15:41:42.787Z,7.30
2022-07-29T15:44:09.866Z,7.80
2022-07-29T15:46:55.858Z,7.10
2022-07-29T15:49:23.024Z,7.23
2022-07-29T15:51:49.911Z,7.83
2022-07-29T15:54:17.689Z,7.70
2022-07-29T15:56:44.478Z,7.93
2022-07-29T15:59:11.264Z,8.00
2022-07-29T16:01:49.545Z,8.20
2022-07-29T16:04:17.368Z,7.95
2022-07-29T16:06:45.465Z,7.88
2022-07-29T16:09:12.626Z,8.20
2022-07-29T16:11:39.499Z,7.45
2022-07-29T16:14:06.675Z,7.22
2022-07-29T16:16:36.123Z,7.10
2022-07-29T16:19:03.706Z,6.70
2022-07-29T16:21:31.598Z,7.20
2022-07-29T16:24:01.148Z,6.50
2022-07-29T16:26:28.335Z,6.97
2022-07-29T16:28:56.563Z,7.30
2022-07-29T16:31:23.889Z,6.87
2022-07-29T16:33:55.339Z,6.70
2022-07-29T16:36:23.220Z,6.90
2022-07-29T16:38:50.418Z,6.80
2022-07-29T16:41:17.280Z,6.50
2022-07-29T16:43:44.260Z,6.60
2022-07-29T16:46:14.679Z,6.20
2022-07-29T16:48:45.945Z,6.60
2022-07-29T16:51:14.506Z,7.07
2022-07-29T16:53:41.850Z,6.63
2022-07-29T16:56:12.605Z,6.90
2022-07-29T16:58:43.439Z,6.65
2022-07-29T17:01:11.400Z,6.97
2022-07-29T17:04:00.148Z,7.30
2022-07-29T17:06:28.620Z,7.15
2022-07-29T17:08:56.683Z,7.32
2022-07-29T17:11:52.999Z,6.40
2022-07-29T17:14:10.564Z,6.55
2022-07-29T17:16:37.480Z,7.43
2022-07-29T17:19:04.469Z,6.85
2022-07-29T17:21:31.226Z,7.15
2022-07-29T17:23:59.353Z,7.53
2022-07-29T17:26:27.523Z,7.05
2022-07-29T17:28:55.574Z,7.35
2022-07-29T17:31:23.322Z,7.15
2022-07-29T17:33:50.460Z,7.68
2022-07-29T17:36:29.098Z,7.40
2022-07-29T17:39:08.332Z,7.10
2022-07-29T17:41:35.076Z,7.23
2022-07-29T17:44:01.866Z,8.10
2022-07-29T17:46:28.841Z,7.78
2022-07-29T17:48:57.168Z,7.20
2022-07-29T17:51:25.396Z,8.10
2022-07-29T17:53:52.774Z,7.90
2022-07-29T17:56:19.586Z,8.00
2022-07-29T17:58:47.382Z,8.20
2022-07-29T18:01:15.703Z,8.30
2022-07-29T18:03:43.811Z,7.65
2022-07-29T18:06:10.793Z,8.35
2022-07-29T18:08:38.917Z,8.20
2022-07-29T18:11:06.385Z,7.60
2022-07-29T18:13:33.301Z,7.70
2022-07-29T18:16:00.820Z,8.02
2022-07-29T18:18:27.987Z,7.10
2022-07-29T18:20:55.016Z,7.70
2022-07-29T18:23:21.852Z,7.13
2022-07-29T18:25:48.858Z,7.50
2022-07-29T18:28:15.721Z,7.73
2022-07-29T18:30:42.650Z,7.60
2022-07-29T18:33:21.790Z,7.88
2022-07-29T18:35:51.193Z,7.63
2022-07-29T18:38:18.283Z,8.40
2022-07-29T18:40:45.891Z,8.20
2022-07-29T18:43:13.679Z,8.30
2022-07-29T18:45:42.476Z,8.52
2022-07-29T18:48:13.191Z,8.60
2022-07-29T18:50:41.314Z,8.70
2022-07-29T18:53:08.394Z,8.50
2022-07-29T18:55:35.347Z,8.60
2022-07-29T18:58:02.263Z,8.75
2022-07-29T19:00:29.270Z,8.85
2022-07-29T19:02:56.759Z,8.15
2022-07-29T19:05:24.150Z,8.40
2022-07-29T19:07:51.138Z,9.27
2022-07-29T19:10:18.010Z,8.90
2022-07-29T19:12:44.849Z,9.60
2022-07-29T19:15:11.770Z,8.23
2022-07-29T19:17:39.046Z,7.93
2022-07-29T19:20:07.790Z,8.07
2022-07-29T19:22:34.868Z,8.20
2022-07-29T19:25:02.193Z,8.95
2022-07-29T19:27:29.109Z,8.55
2022-07-29T19:29:59.278Z,8.63
2022-07-29T19:32:26.628Z,8.20
2022-07-29T19:35:11.834Z,8.50
2022-07-29T19:37:38.631Z,8.80
2022-07-29T19:40:06.918Z,8.88
2022-07-29T19:42:34.917Z,9.48
2022-07-29T19:45:01.725Z,9.05
2022-07-29T19:47:28.587Z,8.40
2022-07-29T19:49:55.268Z,8.75
2022-07-29T19:52:22.018Z,8.82
2022-07-29T19:54:48.888Z,8.30
2022-07-29T19:57:15.600Z,7.47
2022-07-29T19:59:42.407Z,7.80
2022-07-29T20:02:12.212Z,7.68
2022-07-29T20:04:39.563Z,7.57
2022-07-29T20:07:07.017Z,7.40
2022-07-29T20:09:33.909Z,8.00
2022-07-29T20:12:01.013Z,8.32
2022-07-29T20:14:27.822Z,8.30
2022-07-29T20:16:54.615Z,8.17
2022-07-29T20:19:21.487Z,8.45
2022-07-29T20:21:48.255Z,8.05
2022-07-29T20:24:15.038Z,7.88
2022-07-29T20:26:41.779Z,7.40
2022-07-29T20:29:09.064Z,7.10
2022-07-29T20:31:36.042Z,6.87
2022-07-29T20:34:02.966Z,7.70
2022-07-29T20:36:29.808Z,7.28
2022-07-29T20:38:57.261Z,7.03
2022-07-29T20:41:23.984Z,8.00
2022-07-29T20:43:50.874Z,7.85
2022-07-29T20:46:18.211Z,7.68
2022-07-29T20:48:46.910Z,7.50
2022-07-29T20:51:14.558Z,7.05
2022-07-29T20:53:41.595Z,7.30
2022-07-29T20:56:08.557Z,6.80
2022-07-29T20:58:36.515Z,6.20
2022-07-29T21:01:03.793Z,6.50
2022-07-29T21:03:30.639Z,6.80
2022-07-29T21:05:57.468Z,6.90
2022-07-29T21:08:25.336Z,6.90
2022-07-29T21:10:52.761Z,7.40
2022-07-29T21:13:23.084Z,7.43
2022-07-29T21:15:51.683Z,7.05
2022-07-29T21:18:32.413Z,6.97
2022-07-29T21:21:04.325Z,7.40
2022-07-29T21:23:31.492Z,8.50
2022-07-29T21:25:58.642Z,7.80
2022-07-29T21:28:36.853Z,7.70
2022-07-29T21:31:07.474Z,9.13
2022-07-29T21:33:34.800Z,8.10
2022-07-29T21:38:50.533Z,8.02
2022-07-29T21:41:17.300Z,7.90
2022-07-29T21:43:44.118Z,7.95
2022-07-29T21:46:10.894Z,7.93
2022-07-29T21:48:42.386Z,8.60
2022-07-29T21:51:11.131Z,8.30
2022-07-29T21:53:37.915Z,8.52
2022-07-29T21:56:07.601Z,7.70
2022-07-29T21:58:39.242Z,8.40
2022-07-29T22:01:06.086Z,8.40
2022-07-29T22:03:32.978Z,8.95
2022-07-29T22:05:59.734Z,8.90
2022-07-29T22:08:26.517Z,8.32
2022-07-29T22:10:53.332Z,9.90
2022-07-29T22:13:20.302Z,9.68
2022-07-29T22:15:47.481Z,9.90
2022-07-29T22:18:19.494Z,12.60
2022-07-29T22:20:49.084Z,11.25
2022-07-29T22:23:15.884Z,11.30
2022-07-29T22:25:42.762Z,10.18
2022-07-29T22:28:09.480Z,10.03
2022-07-29T22:30:36.331Z,11.20
2022-07-29T22:33:03.114Z,10.88
2022-07-29T22:35:29.819Z,10.52
2022-07-29T22:37:56.510Z,10.77
2022-07-29T22:40:23.270Z,10.30
2022-07-29T22:42:57.361Z,10.57
2022-07-29T22:45:24.269Z,10.45
2022-07-29T22:47:57.509Z,10.27
2022-07-29T22:50:26.381Z,10.55
2022-07-29T22:52:53.197Z,10.23
2022-07-29T22:55:20.066Z,11.07
2022-07-29T22:57:46.840Z,10.95
2022-07-29T23:00:14.217Z,10.70
2022-07-29T23:02:41.494Z,10.88
2022-07-29T23:05:09.052Z,11.10
2022-07-29T23:07:36.062Z,9.68
2022-07-29T23:10:03.826Z,11.48
2022-07-29T23:12:30.650Z,10.20
2022-07-29T23:14:57.436Z,9.82
2022-07-29T23:17:24.267Z,9.50
2022-07-29T23:19:51.128Z,9.27
2022-07-29T23:22:18.540Z,9.70
2022-07-29T23:24:45.485Z,9.30
2022-07-29T23:27:12.199Z,9.55
2022-07-29T23:29:39.001Z,8.80
2022-07-29T23:32:06.031Z,9.40
2022-07-29T23:34:32.797Z,9.07
2022-07-29T23:36:59.753Z,9.23
2022-07-29T23:39:26.728Z,9.00
2022-07-29T23:41:53.577Z,9.10
2022-07-29T23:44:20.457Z,9.75
2022-07-29T23:46:47.237Z,9.30
2022-07-29T23:49:14.495Z,9.10
2022-07-29T23:51:41.300Z,9.25
2022-07-29T23:54:08.302Z,9.77
2022-07-29T23:56:35.025Z,9.63
2022-07-29T23:59:05.995Z,9.02
